sensor_id;sensor_type;location;lat;lon;timestamp;P1;durP1;ratioP1;P2;durP2;ratioP2
51244;SDS011;37840;47.562;18.738;2023-02-10T00:01:14;37.90;;;22.95;;
51244;SDS011;37840;47.562;18.738;2023-02-10T00:03:42;35.40;;;22.52;;
51244;SDS011;37840;47.562;18.738;2023-02-10T00:06:08;44.45;;;25.52;;
51244;SDS011;37840;47.562;18.738;2023-02-10T00:08:35;34.08;;;21.58;;
51244;SDS011;37840;47.562;18.738;2023-02-10T00:11:02;36.33;;;23.20;;
51244;SDS011;37840;47.562;18.738;2023-02-10T00:13:30;41.13;;;23.98;;
51244;SDS011;37840;47.562;18.738;2023-02-10T00:15:57;37.67;;;23.33;;
51244;SDS011;37840;47.562;18.738;2023-02-10T00:18:24;33.60;;;20.02;;
51244;SDS011;37840;47.562;18.738;2023-02-10T00:20:50;38.55;;;21.67;;
51244;SDS011;37840;47.562;18.738;2023-02-10T00:23:16;36.20;;;21.05;;
51244;SDS011;37840;47.562;18.738;2023-02-10T00:25:42;34.58;;;20.52;;
51244;SDS011;37840;47.562;18.738;2023-02-10T00:28:08;32.40;;;19.05;;
51244;SDS011;37840;47.562;18.738;2023-02-10T00:30:35;32.15;;;20.05;;
51244;SDS011;37840;47.562;18.738;2023-02-10T00:33:02;33.08;;;20.35;;
51244;SDS011;37840;47.562;18.738;2023-02-10T00:35:28;33.83;;;18.67;;
51244;SDS011;37840;47.562;18.738;2023-02-10T00:37:54;29.83;;;17.98;;
51244;SDS011;37840;47.562;18.738;2023-02-10T00:40:20;31.17;;;18.70;;
51244;SDS011;37840;47.562;18.738;2023-02-10T00:42:46;31.77;;;18.73;;
51244;SDS011;37840;47.562;18.738;2023-02-10T00:45:12;30.75;;;19.08;;
51244;SDS011;37840;47.562;18.738;2023-02-10T00:47:38;41.50;;;20.85;;
51244;SDS011;37840;47.562;18.738;2023-02-10T00:50:05;30.25;;;17.98;;
51244;SDS011;37840;47.562;18.738;2023-02-10T00:52:31;28.23;;;17.15;;
51244;SDS011;37840;47.562;18.738;2023-02-10T00:54:57;24.63;;;15.48;;
51244;SDS011;37840;47.562;18.738;2023-02-10T00:57:23;25.35;;;15.85;;
51244;SDS011;37840;47.562;18.738;2023-02-10T00:59:49;25.12;;;16.05;;
51244;SDS011;37840;47.562;18.738;2023-02-10T01:02:15;25.50;;;16.30;;
51244;SDS011;37840;47.562;18.738;2023-02-10T01:04:41;30.45;;;18.02;;
51244;SDS011;37840;47.562;18.738;2023-02-10T01:07:07;29.60;;;17.70;;
51244;SDS011;37840;47.562;18.738;2023-02-10T01:09:33;26.10;;;16.73;;
51244;SDS011;37840;47.562;18.738;2023-02-10T01:11:59;26.80;;;16.60;;
51244;SDS011;37840;47.562;18.738;2023-02-10T01:14:25;26.17;;;16.05;;
51244;SDS011;37840;47.562;18.738;2023-02-10T01:16:52;23.55;;;15.18;;
51244;SDS011;37840;47.562;18.738;2023-02-10T01:19:18;24.73;;;16.17;;
51244;SDS011;37840;47.562;18.738;2023-02-10T01:21:44;25.85;;;15.60;;
51244;SDS011;37840;47.562;18.738;2023-02-10T01:24:09;25.77;;;15.90;;
51244;SDS011;37840;47.562;18.738;2023-02-10T01:26:35;25.73;;;15.38;;
51244;SDS011;37840;47.562;18.738;2023-02-10T01:29:02;24.00;;;14.82;;
51244;SDS011;37840;47.562;18.738;2023-02-10T01:31:28;28.75;;;17.05;;
51244;SDS011;37840;47.562;18.738;2023-02-10T01:33:54;28.05;;;16.45;;
51244;SDS011;37840;47.562;18.738;2023-02-10T01:36:21;27.70;;;15.88;;
51244;SDS011;37840;47.562;18.738;2023-02-10T01:38:49;27.02;;;17.02;;
51244;SDS011;37840;47.562;18.738;2023-02-10T01:41:17;26.62;;;17.67;;
51244;SDS011;37840;47.562;18.738;2023-02-10T01:43:55;34.60;;;18.73;;
51244;SDS011;37840;47.562;18.738;2023-02-10T01:46:30;31.42;;;18.73;;
51244;SDS011;37840;47.562;18.738;2023-02-10T01:48:59;33.38;;;18.35;;
51244;SDS011;37840;47.562;18.738;2023-02-10T01:51:30;32.17;;;19.05;;
51244;SDS011;37840;47.562;18.738;2023-02-10T01:54:02;28.17;;;19.15;;
51244;SDS011;37840;47.562;18.738;2023-02-10T01:56:29;31.52;;;18.92;;
51244;SDS011;37840;47.562;18.738;2023-02-10T01:58:55;34.15;;;20.52;;
51244;SDS011;37840;47.562;18.738;2023-02-10T02:01:22;34.13;;;20.75;;
51244;SDS011;37840;47.562;18.738;2023-02-10T02:03:48;30.20;;;19.65;;
51244;SDS011;37840;47.562;18.738;2023-02-10T02:06:14;31.48;;;19.77;;
51244;SDS011;37840;47.562;18.738;2023-02-10T02:08:40;33.15;;;19.05;;
51244;SDS011;37840;47.562;18.738;2023-02-10T02:32:39;33.35;;;19.80;;
51244;SDS011;37840;47.562;18.738;2023-02-10T02:35:17;29.65;;;18.45;;
51244;SDS011;37840;47.562;18.738;2023-02-10T02:37:57;32.13;;;18.62;;
51244;SDS011;37840;47.562;18.738;2023-02-10T02:40:24;30.40;;;19.00;;
51244;SDS011;37840;47.562;18.738;2023-02-10T02:42:50;33.08;;;18.87;;
51244;SDS011;37840;47.562;18.738;2023-02-10T02:45:20;29.70;;;18.25;;
51244;SDS011;37840;47.562;18.738;2023-02-10T02:51:16;26.70;;;17.12;;
51244;SDS011;37840;47.562;18.738;2023-02-10T02:54:38;26.52;;;16.45;;
51244;SDS011;37840;47.562;18.738;2023-02-10T02:59:20;26.20;;;17.65;;
51244;SDS011;37840;47.562;18.738;2023-02-10T03:02:11;28.12;;;16.87;;
51244;SDS011;37840;47.562;18.738;2023-02-10T03:04:39;29.12;;;17.05;;
51244;SDS011;37840;47.562;18.738;2023-02-10T03:07:07;26.25;;;17.33;;
51244;SDS011;37840;47.562;18.738;2023-02-10T03:09:33;27.10;;;15.95;;
51244;SDS011;37840;47.562;18.738;2023-02-10T03:12:01;25.55;;;15.45;;
51244;SDS011;37840;47.562;18.738;2023-02-10T03:14:27;26.87;;;15.93;;
51244;SDS011;37840;47.562;18.738;2023-02-10T03:16:53;24.50;;;14.73;;
51244;SDS011;37840;47.562;18.738;2023-02-10T03:19:19;24.35;;;15.25;;
51244;SDS011;37840;47.562;18.738;2023-02-10T03:21:45;27.00;;;15.57;;
51244;SDS011;37840;47.562;18.738;2023-02-10T03:24:13;26.30;;;15.07;;
51244;SDS011;37840;47.562;18.738;2023-02-10T03:26:39;29.20;;;17.35;;
51244;SDS011;37840;47.562;18.738;2023-02-10T03:29:05;28.05;;;16.87;;
51244;SDS011;37840;47.562;18.738;2023-02-10T03:31:32;29.60;;;18.60;;
51244;SDS011;37840;47.562;18.738;2023-02-10T03:33:58;36.20;;;22.60;;
51244;SDS011;37840;47.562;18.738;2023-02-10T03:36:23;30.50;;;18.80;;
51244;SDS011;37840;47.562;18.738;2023-02-10T03:38:49;26.50;;;16.50;;
51244;SDS011;37840;47.562;18.738;2023-02-10T03:41:16;26.45;;;17.62;;
51244;SDS011;37840;47.562;18.738;2023-02-10T03:43:42;30.90;;;17.92;;
51244;SDS011;37840;47.562;18.738;2023-02-10T03:46:08;28.38;;;17.25;;
51244;SDS011;37840;47.562;18.738;2023-02-10T03:48:35;28.17;;;16.83;;
51244;SDS011;37840;47.562;18.738;2023-02-10T03:51:02;24.27;;;16.52;;
51244;SDS011;37840;47.562;18.738;2023-02-10T03:53:30;25.30;;;16.62;;
51244;SDS011;37840;47.562;18.738;2023-02-10T03:55:57;26.52;;;17.33;;
51244;SDS011;37840;47.562;18.738;2023-02-10T03:58:23;27.67;;;17.27;;
51244;SDS011;37840;47.562;18.738;2023-02-10T04:00:49;29.98;;;18.48;;
51244;SDS011;37840;47.562;18.738;2023-02-10T04:03:16;28.30;;;19.35;;
51244;SDS011;37840;47.562;18.738;2023-02-10T04:05:42;29.40;;;19.05;;
51244;SDS011;37840;47.562;18.738;2023-02-10T04:08:08;30.35;;;19.67;;
51244;SDS011;37840;47.562;18.738;2023-02-10T04:10:34;30.73;;;19.42;;
51244;SDS011;37840;47.562;18.738;2023-02-10T04:13:00;29.15;;;18.58;;
51244;SDS011;37840;47.562;18.738;2023-02-10T04:15:26;30.77;;;19.30;;
51244;SDS011;37840;47.562;18.738;2023-02-10T04:17:52;30.60;;;19.33;;
51244;SDS011;37840;47.562;18.738;2023-02-10T04:20:18;29.10;;;18.05;;
51244;SDS011;37840;47.562;18.738;2023-02-10T04:22:44;34.33;;;18.37;;
51244;SDS011;37840;47.562;18.738;2023-02-10T04:25:10;27.98;;;17.20;;
51244;SDS011;37840;47.562;18.738;2023-02-10T04:27:36;29.75;;;17.05;;
51244;SDS011;37840;47.562;18.738;2023-02-10T04:30:02;25.27;;;16.58;;
51244;SDS011;37840;47.562;18.738;2023-02-10T04:32:28;29.23;;;17.05;;
51244;SDS011;37840;47.562;18.738;2023-02-10T04:34:54;42.28;;;22.77;;
51244;SDS011;37840;47.562;18.738;2023-02-10T04:37:20;62.28;;;29.40;;
51244;SDS011;37840;47.562;18.738;2023-02-10T04:39:46;39.78;;;21.62;;
51244;SDS011;37840;47.562;18.738;2023-02-10T04:42:12;31.50;;;18.00;;
51244;SDS011;37840;47.562;18.738;2023-02-10T04:44:38;27.58;;;14.93;;
51244;SDS011;37840;47.562;18.738;2023-02-10T04:47:04;25.48;;;15.48;;
51244;SDS011;37840;47.562;18.738;2023-02-10T04:49:29;28.50;;;16.67;;
51244;SDS011;37840;47.562;18.738;2023-02-10T04:51:55;27.30;;;15.80;;
51244;SDS011;37840;47.562;18.738;2023-02-10T04:54:21;28.85;;;16.05;;
51244;SDS011;37840;47.562;18.738;2023-02-10T04:56:47;25.58;;;15.85;;
51244;SDS011;37840;47.562;18.738;2023-02-10T04:59:13;27.95;;;15.82;;
51244;SDS011;37840;47.562;18.738;2023-02-10T05:01:39;29.35;;;16.17;;
51244;SDS011;37840;47.562;18.738;2023-02-10T05:04:05;24.63;;;15.82;;
51244;SDS011;37840;47.562;18.738;2023-02-10T05:06:31;25.35;;;14.87;;
51244;SDS011;37840;47.562;18.738;2023-02-10T05:08:57;28.62;;;15.00;;
51244;SDS011;37840;47.562;18.738;2023-02-10T05:11:23;25.45;;;14.95;;
51244;SDS011;37840;47.562;18.738;2023-02-10T05:13:49;25.10;;;15.63;;
51244;SDS011;37840;47.562;18.738;2023-02-10T05:16:15;23.90;;;14.55;;
51244;SDS011;37840;47.562;18.738;2023-02-10T05:18:41;23.00;;;15.43;;
51244;SDS011;37840;47.562;18.738;2023-02-10T05:21:09;22.70;;;14.63;;
51244;SDS011;37840;47.562;18.738;2023-02-10T05:23:37;26.75;;;16.90;;
51244;SDS011;37840;47.562;18.738;2023-02-10T05:26:05;25.73;;;14.48;;
51244;SDS011;37840;47.562;18.738;2023-02-10T05:28:31;25.80;;;15.48;;
51244;SDS011;37840;47.562;18.738;2023-02-10T05:30:57;23.98;;;14.52;;
51244;SDS011;37840;47.562;18.738;2023-02-10T05:33:23;31.10;;;15.63;;
51244;SDS011;37840;47.562;18.738;2023-02-10T05:35:48;30.60;;;16.70;;
51244;SDS011;37840;47.562;18.738;2023-02-10T05:38:14;25.02;;;14.43;;
51244;SDS011;37840;47.562;18.738;2023-02-10T05:40:40;23.30;;;14.85;;
51244;SDS011;37840;47.562;18.738;2023-02-10T05:43:06;26.87;;;15.68;;
51244;SDS011;37840;47.562;18.738;2023-02-10T05:45:35;27.23;;;16.40;;
51244;SDS011;37840;47.562;18.738;2023-02-10T05:48:01;25.73;;;16.12;;
51244;SDS011;37840;47.562;18.738;2023-02-10T05:50:27;29.55;;;16.08;;
51244;SDS011;37840;47.562;18.738;2023-02-10T05:52:54;30.98;;;15.25;;
51244;SDS011;37840;47.562;18.738;2023-02-10T05:55:21;30.58;;;18.65;;
51244;SDS011;37840;47.562;18.738;2023-02-10T05:57:47;35.92;;;19.77;;
51244;SDS011;37840;47.562;18.738;2023-02-10T06:00:13;37.03;;;20.73;;
51244;SDS011;37840;47.562;18.738;2023-02-10T06:02:39;34.42;;;18.95;;
51244;SDS011;37840;47.562;18.738;2023-02-10T06:05:05;23.60;;;16.58;;
51244;SDS011;37840;47.562;18.738;2023-02-10T06:07:31;31.90;;;17.35;;
51244;SDS011;37840;47.562;18.738;2023-02-10T06:09:57;39.33;;;21.08;;
51244;SDS011;37840;47.562;18.738;2023-02-10T06:12:23;31.83;;;19.08;;
51244;SDS011;37840;47.562;18.738;2023-02-10T06:14:49;32.95;;;18.92;;
51244;SDS011;37840;47.562;18.738;2023-02-10T06:17:15;28.62;;;18.08;;
51244;SDS011;37840;47.562;18.738;2023-02-10T06:19:41;28.73;;;17.60;;
51244;SDS011;37840;47.562;18.738;2023-02-10T06:22:07;37.95;;;18.75;;
51244;SDS011;37840;47.562;18.738;2023-02-10T06:24:35;31.12;;;19.30;;
51244;SDS011;37840;47.562;18.738;2023-02-10T06:27:00;32.03;;;19.15;;
51244;SDS011;37840;47.562;18.738;2023-02-10T06:29:27;28.42;;;17.42;;
51244;SDS011;37840;47.562;18.738;2023-02-10T06:31:52;27.95;;;17.05;;
51244;SDS011;37840;47.562;18.738;2023-02-10T06:34:18;40.92;;;20.70;;
51244;SDS011;37840;47.562;18.738;2023-02-10T06:36:44;35.55;;;19.37;;
51244;SDS011;37840;47.562;18.738;2023-02-10T06:39:10;29.37;;;18.02;;
51244;SDS011;37840;47.562;18.738;2023-02-10T06:41:37;30.98;;;17.98;;
51244;SDS011;37840;47.562;18.738;2023-02-10T06:44:02;29.55;;;18.52;;
51244;SDS011;37840;47.562;18.738;2023-02-10T06:46:28;32.45;;;18.67;;
51244;SDS011;37840;47.562;18.738;2023-02-10T06:48:55;34.35;;;20.15;;
51244;SDS011;37840;47.562;18.738;2023-02-10T06:51:20;38.40;;;21.33;;
51244;SDS011;37840;47.562;18.738;2023-02-10T06:53:47;37.53;;;21.20;;
51244;SDS011;37840;47.562;18.738;2023-02-10T06:56:13;36.05;;;22.17;;
51244;SDS011;37840;47.562;18.738;2023-02-10T06:58:39;39.78;;;20.37;;
51244;SDS011;37840;47.562;18.738;2023-02-10T07:01:06;31.15;;;19.98;;
51244;SDS011;37840;47.562;18.738;2023-02-10T07:03:42;36.03;;;20.95;;
51244;SDS011;37840;47.562;18.738;2023-02-10T07:06:08;38.40;;;19.83;;
51244;SDS011;37840;47.562;18.738;2023-02-10T07:08:34;48.78;;;20.12;;
51244;SDS011;37840;47.562;18.738;2023-02-10T07:11:00;30.98;;;19.75;;
51244;SDS011;37840;47.562;18.738;2023-02-10T07:13:26;34.90;;;20.98;;
51244;SDS011;37840;47.562;18.738;2023-02-10T07:15:52;33.95;;;21.70;;
51244;SDS011;37840;47.562;18.738;2023-02-10T07:18:18;33.75;;;22.17;;
51244;SDS011;37840;47.562;18.738;2023-02-10T07:20:44;38.63;;;24.55;;
51244;SDS011;37840;47.562;18.738;2023-02-10T07:23:10;38.35;;;25.00;;
51244;SDS011;37840;47.562;18.738;2023-02-10T07:25:36;37.72;;;25.12;;
51244;SDS011;37840;47.562;18.738;2023-02-10T07:28:02;43.20;;;27.08;;
51244;SDS011;37840;47.562;18.738;2023-02-10T07:30:28;40.67;;;26.20;;
51244;SDS011;37840;47.562;18.738;2023-02-10T07:32:54;42.38;;;30.08;;
51244;SDS011;37840;47.562;18.738;2023-02-10T07:35:20;43.35;;;28.58;;
51244;SDS011;37840;47.562;18.738;2023-02-10T07:37:46;42.97;;;27.87;;
51244;SDS011;37840;47.562;18.738;2023-02-10T07:40:12;45.12;;;29.10;;
51244;SDS011;37840;47.562;18.738;2023-02-10T07:42:38;45.05;;;30.02;;
51244;SDS011;37840;47.562;18.738;2023-02-10T07:45:04;44.80;;;29.10;;
51244;SDS011;37840;47.562;18.738;2023-02-10T07:47:30;51.45;;;32.35;;
51244;SDS011;37840;47.562;18.738;2023-02-10T07:49:56;58.75;;;40.58;;
51244;SDS011;37840;47.562;18.738;2023-02-10T07:52:23;60.63;;;40.72;;
51244;SDS011;37840;47.562;18.738;2023-02-10T07:54:49;62.80;;;40.70;;
51244;SDS011;37840;47.562;18.738;2023-02-10T07:57:15;70.97;;;43.80;;
51244;SDS011;37840;47.562;18.738;2023-02-10T07:59:42;62.90;;;40.78;;
51244;SDS011;37840;47.562;18.738;2023-02-10T08:02:12;60.42;;;41.55;;
51244;SDS011;37840;47.562;18.738;2023-02-10T08:04:38;58.33;;;39.42;;
51244;SDS011;37840;47.562;18.738;2023-02-10T08:07:04;51.47;;;37.13;;
51244;SDS011;37840;47.562;18.738;2023-02-10T08:09:30;51.63;;;37.17;;
51244;SDS011;37840;47.562;18.738;2023-02-10T08:11:56;51.00;;;34.55;;
51244;SDS011;37840;47.562;18.738;2023-02-10T08:14:22;42.62;;;30.60;;
51244;SDS011;37840;47.562;18.738;2023-02-10T08:16:48;37.30;;;26.27;;
51244;SDS011;37840;47.562;18.738;2023-02-10T08:19:14;35.65;;;22.48;;
51244;SDS011;37840;47.562;18.738;2023-02-10T08:21:39;29.67;;;20.23;;
51244;SDS011;37840;47.562;18.738;2023-02-10T08:24:07;28.67;;;20.60;;
51244;SDS011;37840;47.562;18.738;2023-02-10T08:26:33;27.20;;;17.70;;
51244;SDS011;37840;47.562;18.738;2023-02-10T08:29:00;26.95;;;17.67;;
51244;SDS011;37840;47.562;18.738;2023-02-10T08:31:26;26.05;;;18.37;;
51244;SDS011;37840;47.562;18.738;2023-02-10T08:33:52;29.67;;;19.67;;
51244;SDS011;37840;47.562;18.738;2023-02-10T08:36:19;25.67;;;18.05;;
51244;SDS011;37840;47.562;18.738;2023-02-10T08:38:46;27.70;;;18.95;;
51244;SDS011;37840;47.562;18.738;2023-02-10T08:41:13;27.15;;;19.30;;
51244;SDS011;37840;47.562;18.738;2023-02-10T08:43:40;29.25;;;19.98;;
51244;SDS011;37840;47.562;18.738;2023-02-10T08:46:06;27.55;;;19.05;;
51244;SDS011;37840;47.562;18.738;2023-02-10T08:48:32;27.27;;;17.65;;
51244;SDS011;37840;47.562;18.738;2023-02-10T08:50:59;30.23;;;20.00;;
51244;SDS011;37840;47.562;18.738;2023-02-10T08:53:26;28.35;;;18.45;;
51244;SDS011;37840;47.562;18.738;2023-02-10T08:58:49;29.27;;;20.08;;
51244;SDS011;37840;47.562;18.738;2023-02-10T09:01:25;28.52;;;20.30;;
51244;SDS011;37840;47.562;18.738;2023-02-10T09:03:51;25.73;;;17.77;;
51244;SDS011;37840;47.562;18.738;2023-02-10T09:06:23;28.23;;;18.62;;
51244;SDS011;37840;47.562;18.738;2023-02-10T09:08:53;31.65;;;19.52;;
51244;SDS011;37840;47.562;18.738;2023-02-10T09:11:20;28.98;;;18.50;;
51244;SDS011;37840;47.562;18.738;2023-02-10T09:13:49;33.13;;;20.15;;
51244;SDS011;37840;47.562;18.738;2023-02-10T09:16:16;31.87;;;20.27;;
51244;SDS011;37840;47.562;18.738;2023-02-10T09:18:42;29.92;;;19.48;;
51244;SDS011;37840;47.562;18.738;2023-02-10T09:21:08;26.90;;;18.48;;
51244;SDS011;37840;47.562;18.738;2023-02-10T09:30:21;27.90;;;17.42;;
51244;SDS011;37840;47.562;18.738;2023-02-10T09:36:13;25.48;;;16.95;;
51244;SDS011;37840;47.562;18.738;2023-02-10T12:32:34;16.67;;;11.68;;
51244;SDS011;37840;47.562;18.738;2023-02-10T12:35:18;17.98;;;11.57;;
51244;SDS011;37840;47.562;18.738;2023-02-10T12:40:50;19.40;;;12.73;;
51244;SDS011;37840;47.562;18.738;2023-02-10T13:00:13;17.30;;;11.45;;
51244;SDS011;37840;47.562;18.738;2023-02-10T13:02:54;18.73;;;12.48;;
51244;SDS011;37840;47.562;18.738;2023-02-10T13:05:29;17.25;;;11.73;;
51244;SDS011;37840;47.562;18.738;2023-02-10T13:07:59;16.80;;;10.90;;
51244;SDS011;37840;47.562;18.738;2023-02-10T13:10:31;15.95;;;11.52;;
51244;SDS011;37840;47.562;18.738;2023-02-10T13:13:05;18.15;;;12.13;;
51244;SDS011;37840;47.562;18.738;2023-02-10T13:15:38;17.25;;;11.93;;
51244;SDS011;37840;47.562;18.738;2023-02-10T13:18:16;17.80;;;12.15;;
51244;SDS011;37840;47.562;18.738;2023-02-10T13:20:55;37.33;;;22.80;;
51244;SDS011;37840;47.562;18.738;2023-02-10T13:23:42;25.40;;;17.25;;
51244;SDS011;37840;47.562;18.738;2023-02-10T13:26:22;28.87;;;18.95;;
51244;SDS011;37840;47.562;18.738;2023-02-10T13:34:35;16.95;;;11.68;;
51244;SDS011;37840;47.562;18.738;2023-02-10T13:37:13;17.15;;;11.45;;
51244;SDS011;37840;47.562;18.738;2023-02-10T13:39:53;18.48;;;11.12;;
51244;SDS011;37840;47.562;18.738;2023-02-10T13:42:29;16.08;;;11.52;;
51244;SDS011;37840;47.562;18.738;2023-02-10T13:47:46;16.02;;;11.45;;
51244;SDS011;37840;47.562;18.738;2023-02-10T13:52:50;15.52;;;11.77;;
51244;SDS011;37840;47.562;18.738;2023-02-10T13:55:36;14.48;;;10.63;;
51244;SDS011;37840;47.562;18.738;2023-02-10T14:00:42;20.27;;;12.00;;
51244;SDS011;37840;47.562;18.738;2023-02-10T14:05:38;16.25;;;10.82;;
51244;SDS011;37840;47.562;18.738;2023-02-10T14:15:24;22.05;;;14.68;;
51244;SDS011;37840;47.562;18.738;2023-02-10T14:21:17;27.77;;;18.25;;
51244;SDS011;37840;47.562;18.738;2023-02-10T14:27:08;23.25;;;16.55;;
51244;SDS011;37840;47.562;18.738;2023-02-10T14:29:39;15.95;;;12.37;;
51244;SDS011;37840;47.562;18.738;2023-02-10T14:43:29;22.65;;;11.55;;
51244;SDS011;37840;47.562;18.738;2023-02-10T14:46:01;16.87;;;10.35;;
51244;SDS011;37840;47.562;18.738;2023-02-10T14:48:28;15.98;;;10.82;;
51244;SDS011;37840;47.562;18.738;2023-02-10T14:51:05;15.65;;;12.45;;
51244;SDS011;37840;47.562;18.738;2023-02-10T14:56:15;13.93;;;10.52;;
51244;SDS011;37840;47.562;18.738;2023-02-10T15:05:35;22.42;;;12.43;;
51244;SDS011;37840;47.562;18.738;2023-02-10T15:08:05;17.77;;;12.02;;
51244;SDS011;37840;47.562;18.738;2023-02-10T15:10:38;16.10;;;11.77;;
51244;SDS011;37840;47.562;18.738;2023-02-10T15:13:09;16.80;;;11.50;;
51244;SDS011;37840;47.562;18.738;2023-02-10T15:15:39;16.33;;;11.20;;
51244;SDS011;37840;47.562;18.738;2023-02-10T15:20:56;36.08;;;21.17;;
51244;SDS011;37840;47.562;18.738;2023-02-10T15:23:24;30.92;;;20.95;;
51244;SDS011;37840;47.562;18.738;2023-02-10T15:28:42;20.12;;;14.40;;
51244;SDS011;37840;47.562;18.738;2023-02-10T15:31:24;19.48;;;13.90;;
51244;SDS011;37840;47.562;18.738;2023-02-10T15:33:53;21.75;;;15.23;;
51244;SDS011;37840;47.562;18.738;2023-02-10T15:36:34;20.67;;;14.50;;
51244;SDS011;37840;47.562;18.738;2023-02-10T15:39:20;26.02;;;16.15;;
51244;SDS011;37840;47.562;18.738;2023-02-10T15:45:14;22.17;;;15.23;;
51244;SDS011;37840;47.562;18.738;2023-02-10T15:47:43;23.30;;;15.68;;
51244;SDS011;37840;47.562;18.738;2023-02-10T15:50:11;24.17;;;16.62;;
51244;SDS011;37840;47.562;18.738;2023-02-10T15:52:39;23.15;;;15.98;;
51244;SDS011;37840;47.562;18.738;2023-02-10T15:55:21;22.67;;;15.60;;
51244;SDS011;37840;47.562;18.738;2023-02-10T15:57:51;22.90;;;15.18;;
51244;SDS011;37840;47.562;18.738;2023-02-10T16:02:47;25.95;;;17.40;;
51244;SDS011;37840;47.562;18.738;2023-02-10T16:05:13;28.27;;;17.33;;
51244;SDS011;37840;47.562;18.738;2023-02-10T16:07:39;24.52;;;16.70;;
51244;SDS011;37840;47.562;18.738;2023-02-10T16:10:06;23.98;;;16.65;;
51244;SDS011;37840;47.562;18.738;2023-02-10T16:12:44;26.62;;;17.42;;
51244;SDS011;37840;47.562;18.738;2023-02-10T16:15:11;25.08;;;17.17;;
51244;SDS011;37840;47.562;18.738;2023-02-10T16:17:42;25.90;;;17.75;;
51244;SDS011;37840;47.562;18.738;2023-02-10T16:20:21;29.95;;;20.65;;
51244;SDS011;37840;47.562;18.738;2023-02-10T16:22:49;33.05;;;19.67;;
51244;SDS011;37840;47.562;18.738;2023-02-10T16:25:16;32.38;;;21.10;;
51244;SDS011;37840;47.562;18.738;2023-02-10T16:27:43;25.37;;;18.27;;
51244;SDS011;37840;47.562;18.738;2023-02-10T16:30:28;29.65;;;19.73;;
51244;SDS011;37840;47.562;18.738;2023-02-10T16:32:55;26.70;;;17.12;;
51244;SDS011;37840;47.562;18.738;2023-02-10T16:35:21;29.58;;;20.00;;
51244;SDS011;37840;47.562;18.738;2023-02-10T16:37:49;31.27;;;21.05;;
51244;SDS011;37840;47.562;18.738;2023-02-10T16:40:17;29.40;;;20.92;;
51244;SDS011;37840;47.562;18.738;2023-02-10T16:42:48;33.35;;;23.15;;
51244;SDS011;37840;47.562;18.738;2023-02-10T16:45:14;38.00;;;28.20;;
51244;SDS011;37840;47.562;18.738;2023-02-10T16:47:40;35.25;;;24.87;;
51244;SDS011;37840;47.562;18.738;2023-02-10T16:50:19;32.97;;;22.87;;
51244;SDS011;37840;47.562;18.738;2023-02-10T16:52:54;34.63;;;24.02;;
51244;SDS011;37840;47.562;18.738;2023-02-10T16:55:20;32.00;;;21.37;;
51244;SDS011;37840;47.562;18.738;2023-02-10T16:57:46;35.45;;;25.40;;
51244;SDS011;37840;47.562;18.738;2023-02-10T17:00:13;36.75;;;24.63;;
51244;SDS011;37840;47.562;18.738;2023-02-10T17:02:41;30.92;;;19.73;;
51244;SDS011;37840;47.562;18.738;2023-02-10T17:05:07;31.65;;;20.37;;
51244;SDS011;37840;47.562;18.738;2023-02-10T17:07:35;31.58;;;22.45;;
51244;SDS011;37840;47.562;18.738;2023-02-10T17:10:06;27.52;;;20.40;;
51244;SDS011;37840;47.562;18.738;2023-02-10T17:12:37;29.00;;;20.37;;
51244;SDS011;37840;47.562;18.738;2023-02-10T17:15:03;25.98;;;19.50;;
51244;SDS011;37840;47.562;18.738;2023-02-10T17:17:29;25.92;;;18.58;;
51244;SDS011;37840;47.562;18.738;2023-02-10T17:19:55;25.65;;;18.92;;
51244;SDS011;37840;47.562;18.738;2023-02-10T17:22:23;26.42;;;19.00;;
51244;SDS011;37840;47.562;18.738;2023-02-10T17:24:49;44.95;;;26.08;;
51244;SDS011;37840;47.562;18.738;2023-02-10T17:27:15;44.55;;;26.25;;
51244;SDS011;37840;47.562;18.738;2023-02-10T17:29:40;29.23;;;17.87;;
51244;SDS011;37840;47.562;18.738;2023-02-10T17:32:06;34.25;;;20.48;;
51244;SDS011;37840;47.562;18.738;2023-02-10T17:34:32;45.08;;;23.55;;
51244;SDS011;37840;47.562;18.738;2023-02-10T17:37:01;49.65;;;28.20;;
51244;SDS011;37840;47.562;18.738;2023-02-10T17:39:29;57.15;;;35.50;;
51244;SDS011;37840;47.562;18.738;2023-02-10T17:42:02;107.15;;;55.60;;
51244;SDS011;37840;47.562;18.738;2023-02-10T17:44:29;114.20;;;54.40;;
51244;SDS011;37840;47.562;18.738;2023-02-10T17:46:55;58.65;;;33.70;;
51244;SDS011;37840;47.562;18.738;2023-02-10T17:49:23;39.17;;;25.02;;
51244;SDS011;37840;47.562;18.738;2023-02-10T17:51:51;46.67;;;30.25;;
51244;SDS011;37840;47.562;18.738;2023-02-10T17:54:17;44.55;;;28.85;;
51244;SDS011;37840;47.562;18.738;2023-02-10T17:56:44;39.63;;;26.27;;
51244;SDS011;37840;47.562;18.738;2023-02-10T17:59:11;41.83;;;28.12;;
51244;SDS011;37840;47.562;18.738;2023-02-10T18:01:38;50.12;;;30.30;;
51244;SDS011;37840;47.562;18.738;2023-02-10T18:04:04;57.53;;;34.22;;
51244;SDS011;37840;47.562;18.738;2023-02-10T18:06:31;54.60;;;33.50;;
51244;SDS011;37840;47.562;18.738;2023-02-10T18:08:58;47.65;;;28.80;;
51244;SDS011;37840;47.562;18.738;2023-02-10T18:11:25;41.63;;;25.42;;
51244;SDS011;37840;47.562;18.738;2023-02-10T18:13:58;30.23;;;19.20;;
51244;SDS011;37840;47.562;18.738;2023-02-10T18:16:24;44.00;;;26.58;;
51244;SDS011;37840;47.562;18.738;2023-02-10T18:18:50;34.33;;;21.55;;
51244;SDS011;37840;47.562;18.738;2023-02-10T18:21:17;36.40;;;23.20;;
51244;SDS011;37840;47.562;18.738;2023-02-10T18:23:45;36.25;;;21.98;;
51244;SDS011;37840;47.562;18.738;2023-02-10T18:26:12;35.38;;;21.08;;
51244;SDS011;37840;47.562;18.738;2023-02-10T18:28:39;36.72;;;23.50;;
51244;SDS011;37840;47.562;18.738;2023-02-10T18:31:05;35.65;;;22.60;;
51244;SDS011;37840;47.562;18.738;2023-02-10T18:33:32;39.70;;;23.60;;
51244;SDS011;37840;47.562;18.738;2023-02-10T18:35:59;42.83;;;24.58;;
51244;SDS011;37840;47.562;18.738;2023-02-10T18:38:25;43.45;;;25.10;;
51244;SDS011;37840;47.562;18.738;2023-02-10T18:40:51;48.08;;;27.05;;
51244;SDS011;37840;47.562;18.738;2023-02-10T18:43:19;40.45;;;23.90;;
51244;SDS011;37840;47.562;18.738;2023-02-10T18:45:48;40.58;;;24.52;;
51244;SDS011;37840;47.562;18.738;2023-02-10T18:48:15;39.75;;;24.05;;
51244;SDS011;37840;47.562;18.738;2023-02-10T18:50:45;51.22;;;31.77;;
51244;SDS011;37840;47.562;18.738;2023-02-10T18:53:12;59.20;;;34.10;;
51244;SDS011;37840;47.562;18.738;2023-02-10T18:55:40;62.50;;;37.20;;
51244;SDS011;37840;47.562;18.738;2023-02-10T18:58:09;61.47;;;36.00;;
51244;SDS011;37840;47.562;18.738;2023-02-10T19:00:39;50.90;;;32.10;;
51244;SDS011;37840;47.562;18.738;2023-02-10T19:03:06;39.05;;;25.52;;
51244;SDS011;37840;47.562;18.738;2023-02-10T19:05:33;34.33;;;22.23;;
51244;SDS011;37840;47.562;18.738;2023-02-10T19:07:59;27.75;;;19.20;;
51244;SDS011;37840;47.562;18.738;2023-02-10T19:10:25;26.95;;;18.67;;